sensor_id;sensor_type;location;lat;lon;timestamp;temperature;humidity
14283;DHT22;7225;59.282;18.344;2023-05-07T00:02:01;2.30;99.90
14283;DHT22;7225;59.282;18.344;2023-05-07T00:04:30;2.30;99.90
14283;DHT22;7225;59.282;18.344;2023-05-07T00:07:03;2.30;99.90
14283;DHT22;7225;59.282;18.344;2023-05-07T00:09:30;2.20;99.90
14283;DHT22;7225;59.282;18.344;2023-05-07T00:11:57;2.20;99.90
14283;DHT22;7225;59.282;18.344;2023-05-07T00:14:24;2.20;99.90
14283;DHT22;7225;59.282;18.344;2023-05-07T00:16:51;2.20;99.90
14283;DHT22;7225;59.282;18.344;2023-05-07T00:19:18;2.20;99.90
14283;DHT22;7225;59.282;18.344;2023-05-07T00:21:45;2.10;99.90
14283;DHT22;7225;59.282;18.344;2023-05-07T00:24:13;2.20;99.90
14283;DHT22;7225;59.282;18.344;2023-05-07T00:26:40;2.30;99.90
14283;DHT22;7225;59.282;18.344;2023-05-07T00:29:06;2.20;99.90
14283;DHT22;7225;59.282;18.344;2023-05-07T00:31:33;2.20;99.90
14283;DHT22;7225;59.282;18.344;2023-05-07T00:34:00;2.20;99.90
14283;DHT22;7225;59.282;18.344;2023-05-07T00:36:27;2.20;99.90
14283;DHT22;7225;59.282;18.344;2023-05-07T00:38:56;2.30;99.90
14283;DHT22;7225;59.282;18.344;2023-05-07T00:41:23;2.30;99.90
14283;DHT22;7225;59.282;18.344;2023-05-07T00:43:50;2.30;99.90
14283;DHT22;7225;59.282;18.344;2023-05-07T00:46:20;2.20;99.90
14283;DHT22;7225;59.282;18.344;2023-05-07T00:48:48;2.20;99.90
14283;DHT22;7225;59.282;18.344;2023-05-07T00:51:17;2.30;99.90
14283;DHT22;7225;59.282;18.344;2023-05-07T00:53:45;2.30;99.90
14283;DHT22;7225;59.282;18.344;2023-05-07T00:56:12;2.30;99.90
14283;DHT22;7225;59.282;18.344;2023-05-07T00:58:40;2.20;99.90
14283;DHT22;7225;59.282;18.344;2023-05-07T01:01:07;2.30;99.90
14283;DHT22;7225;59.282;18.344;2023-05-07T01:03:34;2.10;99.90
14283;DHT22;7225;59.282;18.344;2023-05-07T01:06:03;2.10;99.90
14283;DHT22;7225;59.282;18.344;2023-05-07T01:08:32;2.00;99.90
14283;DHT22;7225;59.282;18.344;2023-05-07T01:11:01;2.10;99.90
14283;DHT22;7225;59.282;18.344;2023-05-07T01:13:29;1.90;99.90
14283;DHT22;7225;59.282;18.344;2023-05-07T01:15:56;1.80;99.90
14283;DHT22;7225;59.282;18.344;2023-05-07T01:18:23;1.80;99.90
14283;DHT22;7225;59.282;18.344;2023-05-07T01:20:51;1.90;99.90
14283;DHT22;7225;59.282;18.344;2023-05-07T01:23:18;1.90;99.90
14283;DHT22;7225;59.282;18.344;2023-05-07T01:25:53;1.90;99.90
14283;DHT22;7225;59.282;18.344;2023-05-07T01:28:20;1.90;99.90
14283;DHT22;7225;59.282;18.344;2023-05-07T01:30:52;1.80;99.90
14283;DHT22;7225;59.282;18.344;2023-05-07T01:33:21;1.80;99.90
14283;DHT22;7225;59.282;18.344;2023-05-07T01:35:51;1.80;99.90
14283;DHT22;7225;59.282;18.344;2023-05-07T01:38:20;1.90;99.90
14283;DHT22;7225;59.282;18.344;2023-05-07T01:40:48;1.80;99.90
14283;DHT22;7225;59.282;18.344;2023-05-07T01:43:15;1.80;99.90
14283;DHT22;7225;59.282;18.344;2023-05-07T01:45:42;1.80;99.90
14283;DHT22;7225;59.282;18.344;2023-05-07T01:48:11;1.80;99.90
14283;DHT22;7225;59.282;18.344;2023-05-07T01:50:39;1.80;99.90
14283;DHT22;7225;59.282;18.344;2023-05-07T01:53:07;1.80;99.90
14283;DHT22;7225;59.282;18.344;2023-05-07T01:55:34;1.80;99.90
14283;DHT22;7225;59.282;18.344;2023-05-07T01:58:03;1.80;99.90
14283;DHT22;7225;59.282;18.344;2023-05-07T02:00:31;1.80;99.90
14283;DHT22;7225;59.282;18.344;2023-05-07T02:02:58;1.80;99.90
14283;DHT22;7225;59.282;18.344;2023-05-07T02:05:25;1.70;99.90
14283;DHT22;7225;59.282;18.344;2023-05-07T02:07:52;1.80;99.90
14283;DHT22;7225;59.282;18.344;2023-05-07T02:10:19;1.80;99.90
14283;DHT22;7225;59.282;18.344;2023-05-07T02:12:46;1.80;99.90
14283;DHT22;7225;59.282;18.344;2023-05-07T02:15:14;1.70;99.90
14283;DHT22;7225;59.282;18.344;2023-05-07T02:17:58;1.70;99.90
14283;DHT22;7225;59.282;18.344;2023-05-07T02:20:26;1.70;99.90
14283;DHT22;7225;59.282;18.344;2023-05-07T02:22:54;1.70;99.90
14283;DHT22;7225;59.282;18.344;2023-05-07T02:25:21;1.70;99.90
14283;DHT22;7225;59.282;18.344;2023-05-07T02:27:48;1.60;99.90
14283;DHT22;7225;59.282;18.344;2023-05-07T02:30:15;1.70;99.90
14283;DHT22;7225;59.282;18.344;2023-05-07T02:32:42;1.70;99.90
14283;DHT22;7225;59.282;18.344;2023-05-07T02:35:09;1.70;99.90
14283;DHT22;7225;59.282;18.344;2023-05-07T02:37:36;1.70;99.90
14283;DHT22;7225;59.282;18.344;2023-05-07T02:40:03;1.60;99.90
14283;DHT22;7225;59.282;18.344;2023-05-07T02:42:31;1.70;99.90
14283;DHT22;7225;59.282;18.344;2023-05-07T02:44:58;1.70;99.90
14283;DHT22;7225;59.282;18.344;2023-05-07T02:47:25;1.70;99.90
14283;DHT22;7225;59.282;18.344;2023-05-07T02:49:55;1.70;99.90
14283;DHT22;7225;59.282;18.344;2023-05-07T02:52:22;1.60;99.90
14283;DHT22;7225;59.282;18.344;2023-05-07T02:54:49;1.60;99.90
14283;DHT22;7225;59.282;18.344;2023-05-07T02:57:16;1.60;99.90
14283;DHT22;7225;59.282;18.344;2023-05-07T02:59:43;1.60;99.90
14283;DHT22;7225;59.282;18.344;2023-05-07T03:02:10;1.60;99.90
14283;DHT22;7225;59.282;18.344;2023-05-07T03:04:38;1.70;99.90
14283;DHT22;7225;59.282;18.344;2023-05-07T03:07:05;1.60;99.90
14283;DHT22;7225;59.282;18.344;2023-05-07T03:09:32;1.60;99.90
14283;DHT22;7225;59.282;18.344;2023-05-07T03:11:59;1.60;99.90
14283;DHT22;7225;59.282;18.344;2023-05-07T03:14:26;1.50;99.90
14283;DHT22;7225;59.282;18.344;2023-05-07T03:16:53;1.50;99.90
14283;DHT22;7225;59.282;18.344;2023-05-07T03:19:20;1.40;99.90
14283;DHT22;7225;59.282;18.344;2023-05-07T03:21:47;1.50;99.90
14283;DHT22;7225;59.282;18.344;2023-05-07T03:24:14;1.50;99.90
14283;DHT22;7225;59.282;18.344;2023-05-07T03:26:41;1.50;99.90
14283;DHT22;7225;59.282;18.344;2023-05-07T03:29:08;1.60;99.90
14283;DHT22;7225;59.282;18.344;2023-05-07T03:31:35;1.60;99.90
14283;DHT22;7225;59.282;18.344;2023-05-07T03:34:02;1.70;99.90
14283;DHT22;7225;59.282;18.344;2023-05-07T03:36:29;1.70;99.90
14283;DHT22;7225;59.282;18.344;2023-05-07T03:38:57;1.80;99.90
14283;DHT22;7225;59.282;18.344;2023-05-07T03:41:24;1.70;99.90
14283;DHT22;7225;59.282;18.344;2023-05-07T03:43:52;1.80;99.90
14283;DHT22;7225;59.282;18.344;2023-05-07T03:46:19;1.90;99.90
14283;DHT22;7225;59.282;18.344;2023-05-07T03:48:46;2.00;99.90
14283;DHT22;7225;59.282;18.344;2023-05-07T03:51:13;2.00;99.90
14283;DHT22;7225;59.282;18.344;2023-05-07T03:53:40;2.00;99.90
14283;DHT22;7225;59.282;18.344;2023-05-07T03:56:07;2.10;99.90
14283;DHT22;7225;59.282;18.344;2023-05-07T03:58:34;2.10;99.90
14283;DHT22;7225;59.282;18.344;2023-05-07T04:01:01;2.20;99.90
14283;DHT22;7225;59.282;18.344;2023-05-07T04:03:29;2.30;99.90
14283;DHT22;7225;59.282;18.344;2023-05-07T04:05:56;2.40;99.90
14283;DHT22;7225;59.282;18.344;2023-05-07T04:08:23;2.40;99.90
14283;DHT22;7225;59.282;18.344;2023-05-07T04:10:55;2.40;99.90
14283;DHT22;7225;59.282;18.344;2023-05-07T04:13:22;2.50;99.90
14283;DHT22;7225;59.282;18.344;2023-05-07T04:15:49;2.60;99.90
14283;DHT22;7225;59.282;18.344;2023-05-07T04:18:16;2.50;99.90
14283;DHT22;7225;59.282;18.344;2023-05-07T04:20:43;2.60;99.90
14283;DHT22;7225;59.282;18.344;2023-05-07T04:23:10;2.60;99.90
14283;DHT22;7225;59.282;18.344;2023-05-07T04:25:37;2.70;99.90
14283;DHT22;7225;59.282;18.344;2023-05-07T04:28:04;2.80;99.90
14283;DHT22;7225;59.282;18.344;2023-05-07T04:30:31;2.80;99.90
14283;DHT22;7225;59.282;18.344;2023-05-07T04:32:58;2.90;99.90
14283;DHT22;7225;59.282;18.344;2023-05-07T04:35:25;2.90;99.90
14283;DHT22;7225;59.282;18.344;2023-05-07T04:37:53;3.00;99.90
14283;DHT22;7225;59.282;18.344;2023-05-07T04:40:20;3.10;99.90
14283;DHT22;7225;59.282;18.344;2023-05-07T04:42:47;3.20;99.90
14283;DHT22;7225;59.282;18.344;2023-05-07T04:45:13;3.30;99.90
14283;DHT22;7225;59.282;18.344;2023-05-07T04:47:41;3.40;99.90
14283;DHT22;7225;59.282;18.344;2023-05-07T04:50:09;3.40;99.90
14283;DHT22;7225;59.282;18.344;2023-05-07T04:52:36;3.50;99.90
14283;DHT22;7225;59.282;18.344;2023-05-07T04:55:03;3.60;99.90
14283;DHT22;7225;59.282;18.344;2023-05-07T04:57:31;3.60;99.90
14283;DHT22;7225;59.282;18.344;2023-05-07T04:59:58;3.70;99.90
14283;DHT22;7225;59.282;18.344;2023-05-07T05:02:25;3.80;99.90
14283;DHT22;7225;59.282;18.344;2023-05-07T05:04:51;3.90;99.90
14283;DHT22;7225;59.282;18.344;2023-05-07T05:07:18;4.00;99.90
14283;DHT22;7225;59.282;18.344;2023-05-07T05:09:45;4.10;99.90
14283;DHT22;7225;59.282;18.344;2023-05-07T05:12:12;4.10;99.90
14283;DHT22;7225;59.282;18.344;2023-05-07T05:14:39;4.20;99.90
14283;DHT22;7225;59.282;18.344;2023-05-07T05:17:06;4.30;99.90
14283;DHT22;7225;59.282;18.344;2023-05-07T05:19:33;4.40;99.90
14283;DHT22;7225;59.282;18.344;2023-05-07T05:22:00;4.50;99.90
14283;DHT22;7225;59.282;18.344;2023-05-07T05:24:27;4.60;99.90
14283;DHT22;7225;59.282;18.344;2023-05-07T05:26:54;4.60;99.90
14283;DHT22;7225;59.282;18.344;2023-05-07T05:29:21;4.70;99.90
14283;DHT22;7225;59.282;18.344;2023-05-07T05:31:48;4.80;99.90
14283;DHT22;7225;59.282;18.344;2023-05-07T05:34:16;4.80;99.90
14283;DHT22;7225;59.282;18.344;2023-05-07T05:36:43;4.90;99.90
14283;DHT22;7225;59.282;18.344;2023-05-07T05:39:10;5.00;99.90
14283;DHT22;7225;59.282;18.344;2023-05-07T05:41:37;5.00;99.90
14283;DHT22;7225;59.282;18.344;2023-05-07T05:44:04;5.10;99.90
14283;DHT22;7225;59.282;18.344;2023-05-07T05:46:31;5.20;99.90
14283;DHT22;7225;59.282;18.344;2023-05-07T05:49:02;5.30;99.90
14283;DHT22;7225;59.282;18.344;2023-05-07T05:51:29;5.30;99.90
14283;DHT22;7225;59.282;18.344;2023-05-07T05:53:55;5.40;99.90
14283;DHT22;7225;59.282;18.344;2023-05-07T05:56:22;5.50;99.90
14283;DHT22;7225;59.282;18.344;2023-05-07T05:58:50;5.60;99.90
14283;DHT22;7225;59.282;18.344;2023-05-07T06:01:18;5.70;99.90
14283;DHT22;7225;59.282;18.344;2023-05-07T06:03:45;5.90;99.90
14283;DHT22;7225;59.282;18.344;2023-05-07T06:06:12;5.90;99.90
14283;DHT22;7225;59.282;18.344;2023-05-07T06:08:41;6.00;99.90
14283;DHT22;7225;59.282;18.344;2023-05-07T06:11:08;6.10;99.90
14283;DHT22;7225;59.282;18.344;2023-05-07T06:13:35;6.20;99.90
14283;DHT22;7225;59.282;18.344;2023-05-07T06:16:02;6.20;99.90
14283;DHT22;7225;59.282;18.344;2023-05-07T06:18:29;6.20;99.90
14283;DHT22;7225;59.282;18.344;2023-05-07T06:20:56;6.30;99.90
14283;DHT22;7225;59.282;18.344;2023-05-07T06:23:23;6.40;99.90
14283;DHT22;7225;59.282;18.344;2023-05-07T06:25:51;6.50;99.90
14283;DHT22;7225;59.282;18.344;2023-05-07T06:28:18;6.60;99.90
14283;DHT22;7225;59.282;18.344;2023-05-07T06:30:45;6.60;99.90
14283;DHT22;7225;59.282;18.344;2023-05-07T06:33:12;6.70;99.90
14283;DHT22;7225;59.282;18.344;2023-05-07T06:35:39;6.70;99.90
14283;DHT22;7225;59.282;18.344;2023-05-07T06:38:06;6.80;99.90
14283;DHT22;7225;59.282;18.344;2023-05-07T06:40:33;6.90;99.90
14283;DHT22;7225;59.282;18.344;2023-05-07T06:43:00;7.00;99.90
14283;DHT22;7225;59.282;18.344;2023-05-07T06:45:27;7.00;99.90
14283;DHT22;7225;59.282;18.344;2023-05-07T06:47:54;7.10;99.90
14283;DHT22;7225;59.282;18.344;2023-05-07T06:50:21;7.10;99.90
14283;DHT22;7225;59.282;18.344;2023-05-07T06:52:48;7.30;99.90
14283;DHT22;7225;59.282;18.344;2023-05-07T06:55:15;7.30;99.90
14283;DHT22;7225;59.282;18.344;2023-05-07T06:57:42;7.40;99.90
14283;DHT22;7225;59.282;18.344;2023-05-07T07:00:09;7.60;99.90
14283;DHT22;7225;59.282;18.344;2023-05-07T07:02:37;7.80;99.90
14283;DHT22;7225;59.282;18.344;2023-05-07T07:05:04;8.00;99.90
14283;DHT22;7225;59.282;18.344;2023-05-07T07:07:31;7.80;99.90
14283;DHT22;7225;59.282;18.344;2023-05-07T07:09:59;7.80;99.90
14283;DHT22;7225;59.282;18.344;2023-05-07T07:12:25;8.00;99.90
14283;DHT22;7225;59.282;18.344;2023-05-07T07:14:53;8.20;99.90
14283;DHT22;7225;59.282;18.344;2023-05-07T07:17:21;8.10;99.90
14283;DHT22;7225;59.282;18.344;2023-05-07T07:19:48;8.20;99.90
14283;DHT22;7225;59.282;18.344;2023-05-07T07:22:16;8.30;99.90
14283;DHT22;7225;59.282;18.344;2023-05-07T07:24:43;8.50;99.90
14283;DHT22;7225;59.282;18.344;2023-05-07T07:27:10;8.60;99.90
14283;DHT22;7225;59.282;18.344;2023-05-07T07:29:37;8.50;99.90
14283;DHT22;7225;59.282;18.344;2023-05-07T07:32:04;8.70;99.90
14283;DHT22;7225;59.282;18.344;2023-05-07T07:34:31;8.70;99.90
14283;DHT22;7225;59.282;18.344;2023-05-07T07:36:58;8.50;99.90
14283;DHT22;7225;59.282;18.344;2023-05-07T07:39:25;8.40;99.90
14283;DHT22;7225;59.282;18.344;2023-05-07T07:41:52;8.50;99.90
14283;DHT22;7225;59.282;18.344;2023-05-07T07:44:19;8.30;99.90
14283;DHT22;7225;59.282;18.344;2023-05-07T07:46:47;8.10;99.90
14283;DHT22;7225;59.282;18.344;2023-05-07T07:49:14;8.20;99.90
14283;DHT22;7225;59.282;18.344;2023-05-07T07:51:41;8.20;99.90
14283;DHT22;7225;59.282;18.344;2023-05-07T07:54:08;8.50;99.90
14283;DHT22;7225;59.282;18.344;2023-05-07T07:56:35;8.70;99.90
14283;DHT22;7225;59.282;18.344;2023-05-07T07:59:02;8.90;99.90
14283;DHT22;7225;59.282;18.344;2023-05-07T08:01:30;9.10;99.90
14283;DHT22;7225;59.282;18.344;2023-05-07T08:03:57;9.40;99.90
14283;DHT22;7225;59.282;18.344;2023-05-07T08:06:27;9.50;99.90
14283;DHT22;7225;59.282;18.344;2023-05-07T08:08:54;9.60;99.90
14283;DHT22;7225;59.282;18.344;2023-05-07T08:11:21;9.90;99.90
14283;DHT22;7225;59.282;18.344;2023-05-07T08:13:48;10.20;99.90
14283;DHT22;7225;59.282;18.344;2023-05-07T08:16:15;10.30;99.90
14283;DHT22;7225;59.282;18.344;2023-05-07T08:18:42;10.50;99.90
14283;DHT22;7225;59.282;18.344;2023-05-07T08:21:09;10.60;99.90
14283;DHT22;7225;59.282;18.344;2023-05-07T08:23:36;10.80;99.90
14283;DHT22;7225;59.282;18.344;2023-05-07T08:26:03;10.90;99.90
14283;DHT22;7225;59.282;18.344;2023-05-07T08:28:30;11.00;99.90
14283;DHT22;7225;59.282;18.344;2023-05-07T08:30:57;10.90;99.90
14283;DHT22;7225;59.282;18.344;2023-05-07T08:33:27;10.80;99.90
14283;DHT22;7225;59.282;18.344;2023-05-07T08:35:54;11.00;99.90
14283;DHT22;7225;59.282;18.344;2023-05-07T08:38:21;11.10;99.90
14283;DHT22;7225;59.282;18.344;2023-05-07T08:40:48;11.00;99.90
14283;DHT22;7225;59.282;18.344;2023-05-07T08:43:16;11.00;99.90
14283;DHT22;7225;59.282;18.344;2023-05-07T08:45:45;11.20;99.90
14283;DHT22;7225;59.282;18.344;2023-05-07T08:48:16;11.10;99.90
14283;DHT22;7225;59.282;18.344;2023-05-07T08:50:43;11.20;99.90
14283;DHT22;7225;59.282;18.344;2023-05-07T08:53:10;11.20;99.90
14283;DHT22;7225;59.282;18.344;2023-05-07T08:55:37;11.50;99.90
14283;DHT22;7225;59.282;18.344;2023-05-07T08:58:04;11.60;99.90
14283;DHT22;7225;59.282;18.344;2023-05-07T09:00:32;11.70;99.90
14283;DHT22;7225;59.282;18.344;2023-05-07T09:03:00;11.80;99.90
14283;DHT22;7225;59.282;18.344;2023-05-07T09:05:28;11.90;99.90
14283;DHT22;7225;59.282;18.344;2023-05-07T09:07:55;11.40;99.90
14283;DHT22;7225;59.282;18.344;2023-05-07T09:10:24;11.90;99.90
14283;DHT22;7225;59.282;18.344;2023-05-07T09:12:52;12.30;99.90
14283;DHT22;7225;59.282;18.344;2023-05-07T09:15:19;12.30;99.90
14283;DHT22;7225;59.282;18.344;2023-05-07T09:17:46;12.40;99.90
14283;DHT22;7225;59.282;18.344;2023-05-07T09:20:14;12.40;99.90
14283;DHT22;7225;59.282;18.344;2023-05-07T09:22:40;12.60;99.90
14283;DHT22;7225;59.282;18.344;2023-05-07T09:25:08;12.70;99.90
14283;DHT22;7225;59.282;18.344;2023-05-07T09:27:36;12.70;99.90
14283;DHT22;7225;59.282;18.344;2023-05-07T09:30:04;12.90;99.90
14283;DHT22;7225;59.282;18.344;2023-05-07T09:32:36;13.00;99.90
14283;DHT22;7225;59.282;18.344;2023-05-07T09:35:05;13.20;99.90
14283;DHT22;7225;59.282;18.344;2023-05-07T09:37:32;13.40;99.90
14283;DHT22;7225;59.282;18.344;2023-05-07T09:39:59;13.40;99.90
14283;DHT22;7225;59.282;18.344;2023-05-07T09:42:26;13.40;99.90
14283;DHT22;7225;59.282;18.344;2023-05-07T09:44:54;13.30;99.90
14283;DHT22;7225;59.282;18.344;2023-05-07T09:47:24;13.40;99.90
14283;DHT22;7225;59.282;18.344;2023-05-07T09:49:56;13.50;99.90
14283;DHT22;7225;59.282;18.344;2023-05-07T09:52:25;13.70;99.90
14283;DHT22;7225;59.282;18.344;2023-05-07T09:54:57;13.80;99.90
14283;DHT22;7225;59.282;18.344;2023-05-07T09:57:27;13.80;99.90
14283;DHT22;7225;59.282;18.344;2023-05-07T09:59:56;13.70;99.90
14283;DHT22;7225;59.282;18.344;2023-05-07T10:02:29;13.90;99.90
14283;DHT22;7225;59.282;18.344;2023-05-07T10:04:57;14.00;99.90
14283;DHT22;7225;59.282;18.344;2023-05-07T10:07:27;13.90;99.90
14283;DHT22;7225;59.282;18.344;2023-05-07T10:09:55;13.80;99.90
14283;DHT22;7225;59.282;18.344;2023-05-07T10:12:23;13.80;99.90
14283;DHT22;7225;59.282;18.344;2023-05-07T10:14:52;13.80;99.90
14283;DHT22;7225;59.282;18.344;2023-05-07T10:17:20;14.10;99.90
14283;DHT22;7225;59.282;18.344;2023-05-07T10:19:47;14.10;99.90
14283;DHT22;7225;59.282;18.344;2023-05-07T10:22:16;13.90;99.90
14283;DHT22;7225;59.282;18.344;2023-05-07T10:24:44;13.90;99.90
14283;DHT22;7225;59.282;18.344;2023-05-07T10:27:14;13.90;99.90
14283;DHT22;7225;59.282;18.344;2023-05-07T10:32:43;13.90;99.90
14283;DHT22;7225;59.282;18.344;2023-05-07T10:35:19;13.90;99.90
14283;DHT22;7225;59.282;18.344;2023-05-07T10:37:48;13.80;99.90
14283;DHT22;7225;59.282;18.344;2023-05-07T10:40:15;14.30;99.90
14283;DHT22;7225;59.282;18.344;2023-05-07T10:42:58;14.50;99.90
14283;DHT22;7225;59.282;18.344;2023-05-07T10:45:29;14.70;99.90
14283;DHT22;7225;59.282;18.344;2023-05-07T10:48:16;14.90;99.90
14283;DHT22;7225;59.282;18.344;2023-05-07T10:51:18;15.00;99.90
14283;DHT22;7225;59.282;18.344;2023-05-07T10:53:46;14.60;99.90
14283;DHT22;7225;59.282;18.344;2023-05-07T10:56:23;14.60;99.90
14283;DHT22;7225;59.282;18.344;2023-05-07T10:58:50;14.70;99.90
14283;DHT22;7225;59.282;18.344;2023-05-07T11:04:25;14.80;99.90
14283;DHT22;7225;59.282;18.344;2023-05-07T11:15:54;15.00;99.80
14283;DHT22;7225;59.282;18.344;2023-05-07T11:17:58;15.00;99.90
14283;DHT22;7225;59.282;18.344;2023-05-07T11:26:08;15.00;99.90
14283;DHT22;7225;59.282;18.344;2023-05-07T11:28:40;15.40;99.90
14283;DHT22;7225;59.282;18.344;2023-05-07T11:31:08;15.60;99.90
14283;DHT22;7225;59.282;18.344;2023-05-07T11:33:35;15.90;99.90
14283;DHT22;7225;59.282;18.344;2023-05-07T11:36:04;16.00;98.70
14283;DHT22;7225;59.282;18.344;2023-05-07T11:38:35;16.10;98.50
14283;DHT22;7225;59.282;18.344;2023-05-07T11:41:03;16.10;97.80
14283;DHT22;7225;59.282;18.344;2023-05-07T11:43:32;16.20;99.60
14283;DHT22;7225;59.282;18.344;2023-05-07T11:46:11;16.20;98.30
14283;DHT22;7225;59.282;18.344;2023-05-07T11:48:38;16.20;97.80
14283;DHT22;7225;59.282;18.344;2023-05-07T11:51:06;16.30;97.40
14283;DHT22;7225;59.282;18.344;2023-05-07T11:53:41;16.30;97.60
14283;DHT22;7225;59.282;18.344;2023-05-07T11:56:10;16.20;97.20
14283;DHT22;7225;59.282;18.344;2023-05-07T11:58:37;16.30;97.60
14283;DHT22;7225;59.282;18.344;2023-05-07T12:01:08;16.20;96.90
14283;DHT22;7225;59.282;18.344;2023-05-07T12:03:36;16.20;97.00
14283;DHT22;7225;59.282;18.344;2023-05-07T12:06:08;16.30;97.60
14283;DHT22;7225;59.282;18.344;2023-05-07T12:08:40;16.30;97.40
14283;DHT22;7225;59.282;18.344;2023-05-07T12:11:09;16.30;96.70
14283;DHT22;7225;59.282;18.344;2023-05-07T12:13:38;16.00;96.50
14283;DHT22;7225;59.282;18.344;2023-05-07T12:16:06;16.00;95.70
14283;DHT22;7225;59.282;18.344;2023-05-07T12:18:37;16.00;95.50
14283;DHT22;7225;59.282;18.344;2023-05-07T12:21:05;15.80;95.70
14283;DHT22;7225;59.282;18.344;2023-05-07T12:23:34;15.80;95.20
14283;DHT22;7225;59.282;18.344;2023-05-07T12:26:02;15.80;95.50
14283;DHT22;7225;59.282;18.344;2023-05-07T12:28:37;15.90;95.70
14283;DHT22;7225;59.282;18.344;2023-05-07T12:31:06;16.00;96.60
14283;DHT22;7225;59.282;18.344;2023-05-07T12:33:34;16.00;94.20
14283;DHT22;7225;59.282;18.344;2023-05-07T12:36:06;15.80;94.50
14283;DHT22;7225;59.282;18.344;2023-05-07T12:38:36;16.00;94.70
14283;DHT22;7225;59.282;18.344;2023-05-07T12:41:04;16.10;95.10
14283;DHT22;7225;59.282;18.344;2023-05-07T12:43:31;16.10;95.00
14283;DHT22;7225;59.282;18.344;2023-05-07T12:46:01;16.00;95.00
14283;DHT22;7225;59.282;18.344;2023-05-07T12:48:28;16.20;95.10
14283;DHT22;7225;59.282;18.344;2023-05-07T12:50:57;16.20;94.90
14283;DHT22;7225;59.282;18.344;2023-05-07T12:53:26;16.40;95.40
14283;DHT22;7225;59.282;18.344;2023-05-07T12:55:57;16.10;93.70
14283;DHT22;7225;59.282;18.344;2023-05-07T12:58:26;16.20;95.00
14283;DHT22;7225;59.282;18.344;2023-05-07T13:00:55;16.20;94.30
14283;DHT22;7225;59.282;18.344;2023-05-07T13:03:31;16.20;94.60
14283;DHT22;7225;59.282;18.344;2023-05-07T13:06:00;15.90;94.00
14283;DHT22;7225;59.282;18.344;2023-05-07T13:08:32;16.10;94.80
14283;DHT22;7225;59.282;18.344;2023-05-07T13:11:00;16.20;95.00
14283;DHT22;7225;59.282;18.344;2023-05-07T13:13:37;16.00;94.70
14283;DHT22;7225;59.282;18.344;2023-05-07T13:16:06;16.20;95.30
14283;DHT22;7225;59.282;18.344;2023-05-07T13:18:34;16.30;94.80
14283;DHT22;7225;59.282;18.344;2023-05-07T13:21:01;16.20;94.00
14283;DHT22;7225;59.282;18.344;2023-05-07T13:23:28;16.30;94.10
14283;DHT22;7225;59.282;18.344;2023-05-07T13:25:55;16.20;93.90
14283;DHT22;7225;59.282;18.344;2023-05-07T13:28:24;16.20;94.30
14283;DHT22;7225;59.282;18.344;2023-05-07T13:30:52;16.30;94.10
14283;DHT22;7225;59.282;18.344;2023-05-07T13:33:19;16.10;92.70
14283;DHT22;7225;59.282;18.344;2023-05-07T13:35:46;16.00;93.80
14283;DHT22;7225;59.282;18.344;2023-05-07T13:38:13;15.90;93.30
14283;DHT22;7225;59.282;18.344;2023-05-07T13:40:42;15.90;93.80
14283;DHT22;7225;59.282;18.344;2023-05-07T13:43:09;15.40;92.40
14283;DHT22;7225;59.282;18.344;2023-05-07T13:45:37;15.40;92.90
14283;DHT22;7225;59.282;18.344;2023-05-07T13:48:04;15.20;92.60
14283;DHT22;7225;59.282;18.344;2023-05-07T13:50:31;15.20;93.60
14283;DHT22;7225;59.282;18.344;2023-05-07T13:52:58;15.40;94.60
14283;DHT22;7225;59.282;18.344;2023-05-07T13:55:28;15.50;94.90
14283;DHT22;7225;59.282;18.344;2023-05-07T13:58:00;15.50;93.90
14283;DHT22;7225;59.282;18.344;2023-05-07T14:00:28;15.70;93.70
14283;DHT22;7225;59.282;18.344;2023-05-07T14:02:56;15.60;94.00
14283;DHT22;7225;59.282;18.344;2023-05-07T14:05:23;15.80;94.30
14283;DHT22;7225;59.282;18.344;2023-05-07T14:07:51;15.70;93.50
14283;DHT22;7225;59.282;18.344;2023-05-07T14:10:19;15.00;93.30
14283;DHT22;7225;59.282;18.344;2023-05-07T14:12:46;14.30;92.50
14283;DHT22;7225;59.282;18.344;2023-05-07T14:15:13;14.40;93.60
14283;DHT22;7225;59.282;18.344;2023-05-07T14:17:40;14.30;93.20
14283;DHT22;7225;59.282;18.344;2023-05-07T14:20:08;14.40;93.30
14283;DHT22;7225;59.282;18.344;2023-05-07T14:22:36;14.50;93.10
14283;DHT22;7225;59.282;18.344;2023-05-07T14:25:03;14.40;93.20
14283;DHT22;7225;59.282;18.344;2023-05-07T14:27:33;14.20;93.30
14283;DHT22;7225;59.282;18.344;2023-05-07T14:30:00;14.10;92.90
14283;DHT22;7225;59.282;18.344;2023-05-07T14:32:27;13.70;92.40
14283;DHT22;7225;59.282;18.344;2023-05-07T14:34:54;13.60;94.10
14283;DHT22;7225;59.282;18.344;2023-05-07T14:37:21;13.50;91.70
14283;DHT22;7225;59.282;18.344;2023-05-07T14:39:48;13.60;93.60
14283;DHT22;7225;59.282;18.344;2023-05-07T14:42:17;13.50;93.00
14283;DHT22;7225;59.282;18.344;2023-05-07T14:44:44;13.10;88.50
14283;DHT22;7225;59.282;18.344;2023-05-07T14:47:12;13.10;88.10
14283;DHT22;7225;59.282;18.344;2023-05-07T14:49:39;13.20;89.90
14283;DHT22;7225;59.282;18.344;2023-05-07T14:52:07;13.20;88.00
14283;DHT22;7225;59.282;18.344;2023-05-07T14:54:37;13.20;87.60
14283;DHT22;7225;59.282;18.344;2023-05-07T14:57:06;13.30;87.30
14283;DHT22;7225;59.282;18.344;2023-05-07T14:59:33;13.30;87.00
14283;DHT22;7225;59.282;18.344;2023-05-07T15:02:01;13.20;85.80
14283;DHT22;7225;59.282;18.344;2023-05-07T15:04:32;13.20;86.10
14283;DHT22;7225;59.282;18.344;2023-05-07T15:06:59;13.10;84.80
14283;DHT22;7225;59.282;18.344;2023-05-07T15:09:26;13.00;85.50
14283;DHT22;7225;59.282;18.344;2023-05-07T15:11:53;12.90;85.10
14283;DHT22;7225;59.282;18.344;2023-05-07T15:14:20;12.50;84.80
14283;DHT22;7225;59.282;18.344;2023-05-07T15:16:49;12.60;85.50
14283;DHT22;7225;59.282;18.344;2023-05-07T15:19:16;12.60;85.90
14283;DHT22;7225;59.282;18.344;2023-05-07T15:21:43;12.40;85.40
14283;DHT22;7225;59.282;18.344;2023-05-07T15:24:11;12.30;84.90
14283;DHT22;7225;59.282;18.344;2023-05-07T15:26:38;12.20;85.20
14283;DHT22;7225;59.282;18.344;2023-05-07T15:29:05;12.10;85.80
14283;DHT22;7225;59.282;18.344;2023-05-07T15:31:37;12.20;86.00
14283;DHT22;7225;59.282;18.344;2023-05-07T15:34:07;12.30;86.30
14283;DHT22;7225;59.282;18.344;2023-05-07T15:36:34;12.20;86.10
14283;DHT22;7225;59.282;18.344;2023-05-07T15:39:01;12.20;87.80
14283;DHT22;7225;59.282;18.344;2023-05-07T15:41:30;11.90;86.20
14283;DHT22;7225;59.282;18.344;2023-05-07T15:43:57;11.60;85.30
14283;DHT22;7225;59.282;18.344;2023-05-07T15:46:25;11.70;87.40
14283;DHT22;7225;59.282;18.344;2023-05-07T15:48:53;11.60;88.10
14283;DHT22;7225;59.282;18.344;2023-05-07T15:51:20;11.60;87.90
14283;DHT22;7225;59.282;18.344;2023-05-07T15:53:48;11.60;87.50
14283;DHT22;7225;59.282;18.344;2023-05-07T15:56:16;11.50;87.30
14283;DHT22;7225;59.282;18.344;2023-05-07T15:58:42;11.40;88.40
14283;DHT22;7225;59.282;18.344;2023-05-07T16:01:09;11.30;89.20
14283;DHT22;7225;59.282;18.344;2023-05-07T16:03:36;11.40;90.30
14283;DHT22;7225;59.282;18.344;2023-05-07T16:06:05;11.30;89.30